Airfield :







YOU CAN JOIN US ON...

 
LOGIN :

Register | Disclaimer

   EN    FR    IT 

 









Legend :    VFR   Marginal VFR   IFR   Intensive IFR   Very Intensive IFR
Visi :
Ceiling :
>= 8 km
>= 3000ft
5 to 8 km
1000 to 3000 ft
1500m to 5 km
500 to 1000 ft
800 to 1500m
200 to 500 ft
< 800m
< 200 ft
Symbols :   Thunderstorms  Fog  Heavy snow  Heavy precipitations  Wind > 20 kt






- Airport Elevation : 377 ft
- IATA code : YPS


CYPD - Port Hawkesbury

CURRENT METAR :
  • 281300Z AUTO 30005KT 270V340 9SM OVC003 06/05 A2980 RMK SLP099

EXPIRED METARs :
  • 281236Z AUTO 31005KT 280V350 6SM BR OVC003 05/05 A2980 RMK SLP099
  • 281226Z AUTO 33006KT 280V360 1 1/2SM BR OVC003 05/05 A2980 RMK VIS VRB 1-2 1/2 SLP097
  • 281203Z AUTO 30007KT VV002 06/06 A2981 RMK WX MISG VIS MISG PCPN MISG SLP102
  • 281139Z AUTO 30007KT 1/4SM -RA FG VV002 06/06 A2980 RMK SLP097
  • 281111Z AUTO 31008KT 3/4SM -RA BR VV002 06/06 A2980 RMK SLP099
  • 281109Z AUTO 31007KT 3/4SM BR VV002 06/06 A2980 RMK SLP099
  • 281058Z AUTO 31008KT 1/2SM -RA FG VV002 06/06 A2981 RMK SLP100
  • 281031Z AUTO 30007KT 280V340 3/4SM BR OVC002 05/05 A2979 RMK SLP095

TAF N/A
CZQM FIR / North America



MET'MAP, your aeronautical weather chart ! - Copyright ORBIFLY December 2007 - Disclaimer

ORBIFLY MET'MAP TEAM :

Programming & Development : Alexandra Zaïnal
Concept & original design : Baudouin d'Aumeries
Assistance for programming : Marc-Olivier Méhu
Technical & hardware support : Manuel Goepfert

Contact : metmap@orbifly.com




SOURCES & CREDITS :

   NOAA